Trout Lake, Washington
Current Conditions -  °F | °C
As of 7:39 PM on Saturday 24 Jan 2015 (Local Time) from K4S2 Reporting Station
Haze Haze  
Wind Chill: 48°   Ceiling: Unl
Heat Index: 48°   Visibility: 5mi
Dew Point: 48°   Wind: 0mph
Humidity: 100%   Direction: NA
Pressure: 30.25"   Gusts: NA
Location:  46°N, 121.53°W
Report Text: K4S2 250339Z AUTO 00000KT 5SM BR CLR 09/09 A3025 RMK AO2 SLP258 T00900090
Loading
Personal Weather Stations






























Interactive Weather Map New forecast layout! Learn more

10-Day Weather Forecast

Advertisements
Track Severe Weather on mobile